F/V Renaissance II — FMEW — position and weather

sailwx.info

Track history (hours):
 
Tides and Currents Weather Stations Pressure Air Temp Water Temp Dewpoint Dewpoint Depression Visibility Wind Speed Wind Dir Waves Ship Positions

F/V Renaissance II

Last reported at 2015-Jun-24 20:33 UTC. Time now 2015-Jul-05 06:08 UTC.
Position N 46°30' W 001°47'.
Warning: this ship's position is 10 days out of date.

Length 18 m.

Type: Fishing. MMSI: 228216600.

Date/timePositionNaut miles runAvg speedWind from/ knotsBaromVisibWave heightAir tempDewpointWater temp
2015-Jun-24 20:33N 46°30' W 001°47'7 6.5
2015-Jun-24 19:33N 46°24' W 001°51'10 9.9
2015-Jun-24 18:33N 46°15' W 001°59'21 2.1
2015-Jun-24 08:29N 45°55' W 001°58'1 1.3
2015-Jun-24 07:30N 45°55' W 002°00'1 1.3
2015-Jun-24 06:32N 45°56' W 001°59'2 2.5
2015-Jun-24 05:32N 45°56' W 001°55'3 3.2
2015-Jun-24 04:33N 45°59' W 001°54'9 9.0
2015-Jun-24 03:33N 46°08' W 001°52'9 9.1
2015-Jun-24 02:33N 46°17' W 001°50'9 9.1
2015-Jun-24 01:33N 46°26' W 001°48'57 1.8
2015-Jun-22 18:33N 46°56' W 002°58'2 1.8
2015-Jun-22 17:30N 46°57' W 003°00'3 2.2
2015-Jun-22 16:03N 46°57' W 003°05'1 1.1
2015-Jun-22 15:33N 46°57' W 003°04'4 3.8
2015-Jun-22 14:33N 46°56' W 002°59'1 1.2
2015-Jun-22 13:30N 46°56' W 003°01'5 4.6
2015-Jun-22 12:27N 46°55' W 002°54'1 0.7
2015-Jun-22 11:22N 46°54' W 002°53'1 0.9
2015-Jun-22 10:33N 46°55' W 002°53'1 1.3
2015-Jun-22 09:33N 46°56' W 002°54'2 1.8
2015-Jun-22 08:33N 46°55' W 002°56'1 0.8
2015-Jun-22 07:33N 46°56' W 002°55'1 0.8
2015-Jun-22 06:28N 46°57' W 002°56'1 1.5
2015-Jun-22 05:33N 46°56' W 002°54'0 0.2
2015-Jun-22 04:28N 46°56' W 002°55'7 7.6
2015-Jun-22 03:33N 46°52' W 002°46'22 9.0
2015-Jun-22 01:09N 46°39' W 002°20'6 9.2
2015-Jun-22 00:29N 46°37' W 002°12'9 9.2
2015-Jun-21 23:33N 46°33' W 002°01'9 9.2
2015-Jun-21 22:33N 46°28' W 001°50'2 0.3
2015-Jun-21 15:13N 46°30' W 001°47'2 2.6
2015-Jun-21 14:33N 46°28' W 001°48'4 3.6
2015-Jun-21 13:33N 46°28' W 001°53'1 1.4
2015-Jun-21 12:33N 46°29' W 001°55'2 1.6
2015-Jun-21 11:33N 46°30' W 001°56'5 4.9
2015-Jun-21 10:33N 46°32' W 002°03'8 8.0
2015-Jun-21 09:33N 46°24' W 002°01'3 2.7
2015-Jun-21 08:33N 46°22' W 001°59'1 0.6
2015-Jun-21 07:33N 46°22' W 001°58'2 1.6
2015-Jun-21 06:33N 46°23' W 001°60'2 2.1
2015-Jun-21 05:33N 46°21' W 002°01'2 1.6
2015-Jun-21 04:33N 46°23' W 001°59'9 8.6
2015-Jun-21 03:33N 46°28' W 001°49'3 0.3
2015-Jun-20 17:33N 46°30' W 001°47'5 5.3
2015-Jun-20 16:33N 46°25' W 001°50'9 9.1
2015-Jun-20 15:33N 46°17' W 001°56'9 9.2
2015-Jun-20 14:33N 46°09' W 002°02'6 6.1
2015-Jun-20 13:33N 46°04' W 002°07'6 3.2
2015-Jun-20 11:33N 45°58' W 002°10'2 1.7
2015-Jun-20 10:33N 45°59' W 002°08'3 2.6
2015-Jun-20 09:33N 45°56' W 002°10'2 1.7
2015-Jun-20 08:32N 45°55' W 002°09'1 0.8
2015-Jun-20 07:31N 45°54' W 002°08'4 3.7
2015-Jun-20 06:32N 45°51' W 002°06'0 0.4
2015-Jun-20 05:29N 45°50' W 002°05'0 0.3
2015-Jun-20 04:32N 45°51' W 002°05'1 1.3
2015-Jun-20 03:33N 45°50' W 002°06'3 0.9
2015-Jun-20 00:31N 45°47' W 002°08'0 0.3
2015-Jun-19 23:33N 45°47' W 002°08'1 0.8
2015-Jun-19 22:18N 45°48' W 002°07'1 1.2
2015-Jun-19 21:33N 45°49' W 002°07'1 1.4
2015-Jun-19 20:33N 45°50' W 002°06'4 4.0
2015-Jun-19 19:33N 45°54' W 002°09'9 0.7
2015-Jun-19 05:24N 46°03' W 002°08'8 9.3
2015-Jun-19 04:31N 46°11' W 002°02'9 9.1
2015-Jun-19 03:33N 46°18' W 001°56'9 9.0
2015-Jun-19 02:33N 46°26' W 001°49'4 3.9
2015-Jun-19 01:33N 46°30' W 001°48'0 0.0
2015-Jun-19 00:33N 46°30' W 001°48'0 0.0
2015-Jun-18 23:33N 46°30' W 001°48'0 0.0
2015-Jun-18 22:33N 46°30' W 001°48'0 0.0
2015-Jun-18 21:33N 46°30' W 001°48'0 0.0
2015-Jun-18 20:33N 46°30' W 001°48'0 0.0
2015-Jun-18 19:33N 46°30' W 001°48'0 0.0
2015-Jun-18 18:33N 46°30' W 001°48'0 0.0
2015-Jun-18 17:33N 46°30' W 001°48'0 0.1
2015-Jun-18 16:33N 46°30' W 001°47'3 2.7
2015-Jun-18 15:33N 46°27' W 001°49'7 6.8
2015-Jun-18 14:33N 46°22' W 001°55'3 2.2
2015-Jun-18 13:23N 46°21' W 001°59'2 2.0
2015-Jun-18 12:33N 46°20' W 001°59'9 8.2
2015-Jun-18 11:30N 46°26' W 002°08'1 1.5
2015-Jun-18 10:33N 46°27' W 002°08'3 2.9
2015-Jun-18 09:33N 46°24' W 002°08'1 0.9
2015-Jun-18 08:26N 46°25' W 002°07'8 4.3
2015-Jun-18 06:33N 46°21' W 001°57'1 1.3
2015-Jun-18 05:33N 46°22' W 001°58'4 3.5
2015-Jun-18 04:33N 46°24' W 001°55'8 7.6
2015-Jun-18 03:33N 46°30' W 001°47'0 0.0
2015-Jun-18 02:33N 46°30' W 001°47'0 0.0
2015-Jun-18 01:33N 46°30' W 001°47'0 0.0
2015-Jun-18 00:33N 46°30' W 001°47'0 0.0
2015-Jun-17 23:33N 46°30' W 001°47'0 0.0
2015-Jun-17 22:33N 46°30' W 001°47'0 0.0
2015-Jun-17 21:33N 46°30' W 001°47'0 0.0
2015-Jun-17 20:33N 46°30' W 001°47'0 0.0
2015-Jun-17 19:33N 46°30' W 001°47'3 3.1
2015-Jun-17 18:33N 46°27' W 001°49'8 8.1
2015-Jun-17 17:33N 46°21' W 001°57'2 1.6
2015-Jun-17 16:33N 46°22' W 001°59'0 0.3
2015-Jun-17 15:33N 46°22' W 001°59'3 3.1
2015-Jun-17 14:33N 46°24' W 001°55'1 1.5
2015-Jun-17 13:33N 46°23' W 001°57'1 1.3
2015-Jun-17 12:33N 46°23' W 001°58'1 0.7
2015-Jun-17 11:31N 46°22' W 001°59'2 1.8
2015-Jun-17 10:33N 46°20' W 001°59'1 0.7
2015-Jun-17 09:30N 46°21' W 001°59'1 0.6
2015-Jun-17 08:23N 46°21' W 001°58'1 0.6
2015-Jun-17 07:32N 46°22' W 001°58'1 1.0
2015-Jun-17 06:33N 46°21' W 001°59'1 0.6
2015-Jun-17 05:33N 46°22' W 001°60'0 0.3
2015-Jun-17 04:33N 46°22' W 001°60'2 1.9
2015-Jun-17 03:33N 46°23' W 001°58'7 7.3
2015-Jun-17 02:33N 46°28' W 001°49'3 2.6
2015-Jun-17 01:33N 46°30' W 001°47'0 0.0
2015-Jun-17 00:33N 46°30' W 001°47'0 0.0
2015-Jun-16 23:33N 46°30' W 001°47'0 0.0
2015-Jun-16 22:33N 46°30' W 001°47'0 0.0
2015-Jun-16 21:33N 46°30' W 001°47'0 0.0
2015-Jun-16 20:33N 46°30' W 001°47'0 0.0
2015-Jun-16 19:33N 46°30' W 001°47'2 2.1
2015-Jun-16 18:33N 46°28' W 001°48'8 8.3
2015-Jun-16 17:33N 46°22' W 001°57'2 1.7
2015-Jun-16 16:33N 46°24' W 001°57'3 2.6
2015-Jun-16 15:33N 46°21' W 001°55'1 0.6
2015-Jun-16 14:33N 46°21' W 001°56'1 0.9
2015-Jun-16 13:33N 46°22' W 001°57'5 4.7
2015-Jun-16 12:33N 46°18' W 001°55'1 0.9
2015-Jun-16 11:24N 46°17' W 001°56'1 0.1
2015-Jun-16 04:15N 46°16' W 001°57'6 9.1
2015-Jun-16 03:33N 46°22' W 001°53'9 8.6
2015-Jun-16 02:33N 46°29' W 001°48'  
Track history (hours):
 
Tides and Currents Weather Stations Pressure Air Temp Water Temp Dewpoint Dewpoint Depression Visibility Wind Speed Wind Dir Waves Ship Positions

F/V Renaissance II

Last reported at 2015-Jun-24 20:33 UTC. Time now 2015-Jul-05 06:08 UTC.
Position N 46°30' W 001°47'.
Warning: this ship's position is 10 days out of date.

Length 18 m.

Type: Fishing. MMSI: 228216600.

Date/timePositionNaut miles runAvg speedWind from/ knotsBaromVisibWave heightAir tempDewpointWater temp
2015-Jun-24 20:33N 46°30' W 001°47'7 6.5
2015-Jun-24 19:33N 46°24' W 001°51'10 9.9
2015-Jun-24 18:33N 46°15' W 001°59'21 2.1
2015-Jun-24 08:29N 45°55' W 001°58'1 1.3
2015-Jun-24 07:30N 45°55' W 002°00'1 1.3
2015-Jun-24 06:32N 45°56' W 001°59'2 2.5
2015-Jun-24 05:32N 45°56' W 001°55'3 3.2
2015-Jun-24 04:33N 45°59' W 001°54'9 9.0
2015-Jun-24 03:33N 46°08' W 001°52'9 9.1
2015-Jun-24 02:33N 46°17' W 001°50'9 9.1
2015-Jun-24 01:33N 46°26' W 001°48'57 1.8
2015-Jun-22 18:33N 46°56' W 002°58'2 1.8
2015-Jun-22 17:30N 46°57' W 003°00'3 2.2
2015-Jun-22 16:03N 46°57' W 003°05'1 1.1
2015-Jun-22 15:33N 46°57' W 003°04'4 3.8
2015-Jun-22 14:33N 46°56' W 002°59'1 1.2
2015-Jun-22 13:30N 46°56' W 003°01'5 4.6
2015-Jun-22 12:27N 46°55' W 002°54'1 0.7
2015-Jun-22 11:22N 46°54' W 002°53'1 0.9
2015-Jun-22 10:33N 46°55' W 002°53'1 1.3
2015-Jun-22 09:33N 46°56' W 002°54'2 1.8
2015-Jun-22 08:33N 46°55' W 002°56'1 0.8
2015-Jun-22 07:33N 46°56' W 002°55'1 0.8
2015-Jun-22 06:28N 46°57' W 002°56'1 1.5
2015-Jun-22 05:33N 46°56' W 002°54'0 0.2
2015-Jun-22 04:28N 46°56' W 002°55'7 7.6
2015-Jun-22 03:33N 46°52' W 002°46'22 9.0
2015-Jun-22 01:09N 46°39' W 002°20'6 9.2
2015-Jun-22 00:29N 46°37' W 002°12'9 9.2
2015-Jun-21 23:33N 46°33' W 002°01'9 9.2
2015-Jun-21 22:33N 46°28' W 001°50'2 0.3
2015-Jun-21 15:13N 46°30' W 001°47'2 2.6
2015-Jun-21 14:33N 46°28' W 001°48'4 3.6
2015-Jun-21 13:33N 46°28' W 001°53'1 1.4
2015-Jun-21 12:33N 46°29' W 001°55'2 1.6
2015-Jun-21 11:33N 46°30' W 001°56'5 4.9
2015-Jun-21 10:33N 46°32' W 002°03'8 8.0
2015-Jun-21 09:33N 46°24' W 002°01'3 2.7
2015-Jun-21 08:33N 46°22' W 001°59'1 0.6
2015-Jun-21 07:33N 46°22' W 001°58'2 1.6
2015-Jun-21 06:33N 46°23' W 001°60'2 2.1
2015-Jun-21 05:33N 46°21' W 002°01'2 1.6
2015-Jun-21 04:33N 46°23' W 001°59'9 8.6
2015-Jun-21 03:33N 46°28' W 001°49'3 0.3
2015-Jun-20 17:33N 46°30' W 001°47'5 5.3
2015-Jun-20 16:33N 46°25' W 001°50'9 9.1
2015-Jun-20 15:33N 46°17' W 001°56'9 9.2
2015-Jun-20 14:33N 46°09' W 002°02'6 6.1
2015-Jun-20 13:33N 46°04' W 002°07'6 3.2
2015-Jun-20 11:33N 45°58' W 002°10'2 1.7
2015-Jun-20 10:33N 45°59' W 002°08'3 2.6
2015-Jun-20 09:33N 45°56' W 002°10'2 1.7
2015-Jun-20 08:32N 45°55' W 002°09'1 0.8
2015-Jun-20 07:31N 45°54' W 002°08'4 3.7
2015-Jun-20 06:32N 45°51' W 002°06'0 0.4
2015-Jun-20 05:29N 45°50' W 002°05'0 0.3
2015-Jun-20 04:32N 45°51' W 002°05'1 1.3
2015-Jun-20 03:33N 45°50' W 002°06'3 0.9
2015-Jun-20 00:31N 45°47' W 002°08'0 0.3
2015-Jun-19 23:33N 45°47' W 002°08'1 0.8
2015-Jun-19 22:18N 45°48' W 002°07'1 1.2
2015-Jun-19 21:33N 45°49' W 002°07'1 1.4
2015-Jun-19 20:33N 45°50' W 002°06'4 4.0
2015-Jun-19 19:33N 45°54' W 002°09'9 0.7
2015-Jun-19 05:24N 46°03' W 002°08'8 9.3
2015-Jun-19 04:31N 46°11' W 002°02'9 9.1
2015-Jun-19 03:33N 46°18' W 001°56'9 9.0
2015-Jun-19 02:33N 46°26' W 001°49'4 3.9
2015-Jun-19 01:33N 46°30' W 001°48'0 0.0
2015-Jun-19 00:33N 46°30' W 001°48'0 0.0
2015-Jun-18 23:33N 46°30' W 001°48'0 0.0
2015-Jun-18 22:33N 46°30' W 001°48'0 0.0
2015-Jun-18 21:33N 46°30' W 001°48'0 0.0
2015-Jun-18 20:33N 46°30' W 001°48'0 0.0
2015-Jun-18 19:33N 46°30' W 001°48'0 0.0
2015-Jun-18 18:33N 46°30' W 001°48'0 0.0
2015-Jun-18 17:33N 46°30' W 001°48'0 0.1
2015-Jun-18 16:33N 46°30' W 001°47'3 2.7
2015-Jun-18 15:33N 46°27' W 001°49'7 6.8
2015-Jun-18 14:33N 46°22' W 001°55'3 2.2
2015-Jun-18 13:23N 46°21' W 001°59'2 2.0
2015-Jun-18 12:33N 46°20' W 001°59'9 8.2
2015-Jun-18 11:30N 46°26' W 002°08'1 1.5
2015-Jun-18 10:33N 46°27' W 002°08'3 2.9
2015-Jun-18 09:33N 46°24' W 002°08'1 0.9
2015-Jun-18 08:26N 46°25' W 002°07'8 4.3
2015-Jun-18 06:33N 46°21' W 001°57'1 1.3
2015-Jun-18 05:33N 46°22' W 001°58'4 3.5
2015-Jun-18 04:33N 46°24' W 001°55'8 7.6
2015-Jun-18 03:33N 46°30' W 001°47'0 0.0
2015-Jun-18 02:33N 46°30' W 001°47'0 0.0
2015-Jun-18 01:33N 46°30' W 001°47'0 0.0
2015-Jun-18 00:33N 46°30' W 001°47'0 0.0
2015-Jun-17 23:33N 46°30' W 001°47'0 0.0
2015-Jun-17 22:33N 46°30' W 001°47'0 0.0
2015-Jun-17 21:33N 46°30' W 001°47'0 0.0
2015-Jun-17 20:33N 46°30' W 001°47'0 0.0
2015-Jun-17 19:33N 46°30' W 001°47'3 3.1
2015-Jun-17 18:33N 46°27' W 001°49'8 8.1
2015-Jun-17 17:33N 46°21' W 001°57'2 1.6
2015-Jun-17 16:33N 46°22' W 001°59'0 0.3
2015-Jun-17 15:33N 46°22' W 001°59'3 3.1
2015-Jun-17 14:33N 46°24' W 001°55'1 1.5
2015-Jun-17 13:33N 46°23' W 001°57'1 1.3
2015-Jun-17 12:33N 46°23' W 001°58'1 0.7
2015-Jun-17 11:31N 46°22' W 001°59'2 1.8
2015-Jun-17 10:33N 46°20' W 001°59'1 0.7
2015-Jun-17 09:30N 46°21' W 001°59'1 0.6
2015-Jun-17 08:23N 46°21' W 001°58'1 0.6
2015-Jun-17 07:32N 46°22' W 001°58'1 1.0
2015-Jun-17 06:33N 46°21' W 001°59'1 0.6
2015-Jun-17 05:33N 46°22' W 001°60'0 0.3
2015-Jun-17 04:33N 46°22' W 001°60'2 1.9
2015-Jun-17 03:33N 46°23' W 001°58'7 7.3
2015-Jun-17 02:33N 46°28' W 001°49'3 2.6
2015-Jun-17 01:33N 46°30' W 001°47'0 0.0
2015-Jun-17 00:33N 46°30' W 001°47'0 0.0
2015-Jun-16 23:33N 46°30' W 001°47'0 0.0
2015-Jun-16 22:33N 46°30' W 001°47'0 0.0
2015-Jun-16 21:33N 46°30' W 001°47'0 0.0
2015-Jun-16 20:33N 46°30' W 001°47'0 0.0
2015-Jun-16 19:33N 46°30' W 001°47'2 2.1
2015-Jun-16 18:33N 46°28' W 001°48'8 8.3
2015-Jun-16 17:33N 46°22' W 001°57'2 1.7
2015-Jun-16 16:33N 46°24' W 001°57'3 2.6
2015-Jun-16 15:33N 46°21' W 001°55'1 0.6
2015-Jun-16 14:33N 46°21' W 001°56'1 0.9
2015-Jun-16 13:33N 46°22' W 001°57'5 4.7
2015-Jun-16 12:33N 46°18' W 001°55'1 0.9
2015-Jun-16 11:24N 46°17' W 001°56'1 0.1
2015-Jun-16 04:15N 46°16' W 001°57'6 9.1
2015-Jun-16 03:33N 46°22' W 001°53'9 8.6
2015-Jun-16 02:33N 46°29' W 001°48'  

Dump ship's entire track history